Time;durP1;ratioP1;P1;durP2;ratioP2;P2;SDS_P1;SDS_P2;PMS_P1;PMS_P2;Temp;Humidity;BMP_temperature;BMP_pressure;BME280_temperature;BME280_humidity;BME280_pressure;Samples;Min_cycle;Max_cycle;Signal;HPM_P1;HPM_P2
2023/05/16 00:01:40;;;;;;;15.45;3.42;;;;;;;8.60;84.55;101794.28;6132951;23;20049;-77
2023/05/16 00:04:06;;;;;;;13.38;3.35;;;;;;;8.59;84.38;101800.38;6134379;23;20422;-75
2023/05/16 00:06:32;;;;;;;13.70;3.83;;;;;;;8.61;84.20;101800.41;6110120;23;20029;-77
2023/05/16 00:09:01;;;;;;;15.48;3.42;;;;;;;8.62;85.18;101804.75;6110408;23;20024;-78
2023/05/16 00:11:27;;;;;;;13.30;3.55;;;;;;;8.62;85.65;101808.25;6157706;23;20067;-72
2023/05/16 00:13:53;;;;;;;15.93;3.90;;;;;;;8.60;87.08;101804.72;6110818;23;20027;-71
2023/05/16 00:16:20;;;;;;;14.50;3.67;;;;;;;8.59;87.46;101807.31;6109257;23;20013;-71
2023/05/16 00:18:46;;;;;;;15.27;3.58;;;;;;;8.57;87.63;101809.91;6110085;23;20491;-72
2023/05/16 00:21:12;;;;;;;16.30;4.65;;;;;;;8.55;88.12;101803.81;6184626;23;20008;-72
2023/05/16 00:23:38;;;;;;;17.52;4.20;;;;;;;8.51;88.03;101807.25;6109924;23;20016;-72
2023/05/16 00:26:03;;;;;;;16.63;3.97;;;;;;;8.50;87.72;101810.69;6157937;23;20008;-72
2023/05/16 00:28:29;;;;;;;16.73;4.28;;;;;;;8.45;87.63;101815.00;6133599;23;20404;-72
2023/05/16 00:30:55;;;;;;;21.58;4.35;;;;;;;8.43;88.35;101814.06;6158423;23;20371;-76
2023/05/16 00:33:20;;;;;;;14.30;3.67;;;;;;;8.35;87.74;101800.03;6144301;22;20362;-72
2023/05/16 01:13:39;;;;;;;17.23;3.22;;;;;;;7.59;88.96;101819.81;6192355;22;20423;-77
2023/05/16 01:31:28;;;;;;;21.08;3.90;;;;;;;7.32;87.72;101830.66;6155833;23;20033;-77
2023/05/16 01:33:54;;;;;;;12.73;2.80;;;;;;;7.32;88.11;101835.88;6104766;23;20018;-71
2023/05/16 01:36:27;;;;;;;14.50;2.55;;;;;;;7.28;87.86;101841.06;6105019;23;20005;-74
2023/05/16 01:39:30;;;;;;;12.38;3.30;;;;;;;7.27;87.76;101830.59;6129044;23;20380;-74
2023/05/16 01:41:59;;;;;;;14.13;2.95;;;;;;;7.18;87.80;101827.81;6128858;23;20009;-75
2023/05/16 01:44:35;;;;;;;19.33;4.00;;;;;;;7.12;87.95;101833.78;6128737;23;20063;-73
2023/05/16 01:47:10;;;;;;;18.35;2.97;;;;;;;7.07;87.78;101835.44;6127626;23;20010;-74
2023/05/16 01:49:40;;;;;;;15.55;3.20;;;;;;;7.02;87.14;101837.06;6127731;23;20002;-74
2023/05/16 01:52:15;;;;;;;16.65;3.00;;;;;;;6.96;87.67;101842.19;6127220;23;20509;-75
2023/05/16 01:54:44;;;;;;;15.63;3.53;;;;;;;6.90;87.22;101840.34;6153431;23;20428;-74
2023/05/16 01:57:11;;;;;;;18.40;2.85;;;;;;;6.79;87.96;101834.03;6103314;23;20454;-74
2023/05/16 01:59:38;;;;;;;15.77;3.38;;;;;;;6.79;87.79;101844.44;6102938;23;20344;-73
2023/05/16 02:02:04;;;;;;;20.17;3.10;;;;;;;6.76;88.01;101847.88;6100995;23;20091;-79
2023/05/16 02:04:29;;;;;;;19.70;2.92;;;;;;;6.69;88.28;101843.38;6127844;23;20029;-80
2023/05/16 02:06:55;;;;;;;21.90;3.22;;;;;;;6.66;88.47;101844.19;6103617;23;20016;-80
2023/05/16 02:09:21;;;;;;;15.60;2.95;;;;;;;6.66;87.69;101851.13;6102743;23;20012;-79
2023/05/16 02:11:46;;;;;;;20.83;3.55;;;;;;;6.57;87.86;101850.09;6103450;23;20013;-80
2023/05/16 02:14:12;;;;;;;14.95;2.53;;;;;;;6.56;87.84;101845.72;6103986;23;20474;-78
2023/05/16 02:16:38;;;;;;;14.73;3.28;;;;;;;6.52;88.01;101856.03;6079728;23;20016;-78
2023/05/16 02:19:03;;;;;;;16.75;2.97;;;;;;;6.49;88.31;101854.25;6102971;23;20017;-80
2023/05/16 02:21:29;;;;;;;20.10;3.67;;;;;;;6.46;87.78;101859.41;6127676;23;20495;-80
2023/05/16 02:23:55;;;;;;;16.38;3.22;;;;;;;6.44;88.16;101860.19;6128447;23;20017;-79
2023/05/16 02:26:20;;;;;;;15.07;2.78;;;;;;;6.37;88.15;101854.00;6078339;23;20014;-80
2023/05/16 02:28:48;;;;;;;14.77;2.65;;;;;;;6.35;87.58;101858.28;6128220;23;20016;-79
2023/05/16 02:31:27;;;;;;;14.75;2.75;;;;;;;6.33;88.16;101859.97;6127714;23;20131;-80
2023/05/16 02:33:53;;;;;;;16.05;3.40;;;;;;;6.31;88.35;101864.28;6128230;23;20033;-79
2023/05/16 02:36:18;;;;;;;13.02;2.75;;;;;;;6.29;88.81;101863.38;6102732;23;20016;-79
2023/05/16 02:38:44;;;;;;;14.25;3.10;;;;;;;6.32;88.38;101868.63;6078106;23;20009;-80
2023/05/16 02:41:09;;;;;;;17.17;3.38;;;;;;;6.32;87.90;101871.22;6077590;23;20009;-80
2023/05/16 02:43:35;;;;;;;13.27;2.55;;;;;;;6.32;88.06;101872.13;6128235;23;20033;-79
2023/05/16 02:46:03;;;;;;;14.05;2.53;;;;;;;6.31;87.87;101872.09;6078851;23;20006;-79
2023/05/16 02:48:29;;;;;;;14.77;3.40;;;;;;;6.27;87.60;101884.16;6127373;23;20009;-79
2023/05/16 02:50:54;;;;;;;18.15;2.88;;;;;;;6.26;88.40;101878.91;6101506;23;20010;-80
2023/05/16 02:53:20;;;;;;;16.13;3.20;;;;;;;6.22;88.02;101886.66;6103031;23;20036;-73
2023/05/16 02:55:45;;;;;;;14.73;3.30;;;;;;;6.22;88.14;101896.16;6101776;23;20013;-74
2023/05/16 02:58:11;;;;;;;14.35;2.67;;;;;;;6.18;88.65;101900.44;6079439;23;20010;-80
2023/05/16 03:00:36;;;;;;;15.77;3.22;;;;;;;6.20;88.58;101898.75;6103255;23;20013;-79
2023/05/16 03:03:01;;;;;;;14.15;2.78;;;;;;;6.19;88.62;101889.19;6128107;23;20016;-79
2023/05/16 03:05:27;;;;;;;14.10;3.10;;;;;;;6.21;88.72;101899.63;6079297;23;20017;-80
2023/05/16 03:07:52;;;;;;;16.38;3.25;;;;;;;6.23;88.83;101904.03;6103592;23;20014;-80
2023/05/16 03:10:18;;;;;;;16.67;2.90;;;;;;;6.25;89.09;101901.47;6102353;23;20018;-79
2023/05/16 03:12:43;;;;;;;15.55;2.67;;;;;;;6.28;88.54;101901.53;6103492;23;20025;-80
2023/05/16 03:15:09;;;;;;;14.85;2.97;;;;;;;6.30;88.84;101898.97;6102677;23;20104;-80
2023/05/16 03:17:34;;;;;;;16.23;3.13;;;;;;;6.32;88.47;101910.28;6152793;23;20080;-79
2023/05/16 03:20:00;;;;;;;17.15;3.83;;;;;;;6.28;88.36;101908.44;6078417;23;20001;-79
2023/05/16 03:22:25;;;;;;;16.13;3.20;;;;;;;6.28;88.31;101900.63;6078679;23;20016;-74
2023/05/16 03:24:51;;;;;;;13.48;2.92;;;;;;;6.27;88.00;101901.50;6102723;23;20017;-73
2023/05/16 03:27:16;;;;;;;12.88;2.70;;;;;;;6.27;88.20;101910.19;6103678;23;20013;-73
2023/05/16 03:29:42;;;;;;;15.18;2.97;;;;;;;6.22;88.46;101912.69;6104919;23;20021;-74
2023/05/16 03:32:08;;;;;;;17.98;3.35;;;;;;;6.20;88.47;101911.75;6105026;23;20406;-74
2023/05/16 03:34:33;;;;;;;13.05;3.03;;;;;;;6.21;88.55;101907.44;6105629;23;20013;-74
2023/05/16 03:36:59;;;;;;;15.70;2.78;;;;;;;6.17;88.58;101908.22;6080693;23;20035;-79
2023/05/16 03:39:24;;;;;;;20.45;3.45;;;;;;;6.11;88.34;101921.97;6079069;23;20419;-79
2023/05/16 03:41:55;;;;;;;12.90;3.13;;;;;;;6.06;89.23;101915.75;6081834;23;20021;-79
2023/05/16 03:44:20;;;;;;;14.88;2.90;;;;;;;6.06;88.74;101921.84;6129883;23;20023;-80
2023/05/16 03:46:45;;;;;;;15.35;2.67;;;;;;;6.04;88.94;101926.13;6105627;23;20279;-79
2023/05/16 03:49:11;;;;;;;11.40;2.90;;;;;;;6.05;89.17;101927.91;6104465;23;20092;-79
2023/05/16 03:51:36;;;;;;;13.90;3.00;;;;;;;6.00;89.05;101933.81;6080844;23;20010;-80
2023/05/16 03:54:02;;;;;;;16.85;3.50;;;;;;;6.00;88.50;101929.50;6080235;23;20569;-79
2023/05/16 03:56:27;;;;;;;13.10;3.20;;;;;;;5.94;88.55;101931.06;6128791;23;20018;-80
2023/05/16 03:58:53;;;;;;;10.63;2.83;;;;;;;5.94;89.22;101934.53;6080230;23;20040;-79
2023/05/16 04:01:18;;;;;;;11.38;3.20;;;;;;;5.97;88.75;101933.72;6104476;23;20144;-78
2023/05/16 04:03:44;;;;;;;17.85;4.07;;;;;;;5.95;88.69;101935.38;6104978;23;20149;-79
2023/05/16 04:06:09;;;;;;;17.73;3.75;;;;;;;5.92;88.45;101940.53;6104604;23;20060;-80
2023/05/16 04:08:35;;;;;;;13.60;2.90;;;;;;;5.94;88.27;101938.84;6105366;23;20092;-79
2023/05/16 04:11:00;;;;;;;14.57;3.13;;;;;;;5.95;88.88;101945.78;6079333;23;20013;-79
2023/05/16 04:13:26;;;;;;;11.98;3.38;;;;;;;5.88;89.27;101942.19;6105265;23;20006;-79
2023/05/16 04:15:51;;;;;;;12.60;3.03;;;;;;;5.92;89.43;101940.53;6128554;23;20013;-80
2023/05/16 04:18:17;;;;;;;16.65;3.58;;;;;;;5.92;89.28;101945.72;6104651;23;20340;-79
2023/05/16 04:20:42;;;;;;;15.95;3.70;;;;;;;5.95;89.79;101944.09;6079672;23;20009;-79
2023/05/16 04:23:10;;;;;;;17.95;3.00;;;;;;;6.03;89.68;101946.91;6104941;23;20343;-78
2023/05/16 04:25:36;;;;;;;18.30;4.18;;;;;;;6.08;89.76;101947.91;6104008;23;20324;-79
2023/05/16 04:28:01;;;;;;;14.10;3.47;;;;;;;6.15;89.55;101948.91;6104536;23;20018;-79
2023/05/16 04:30:27;;;;;;;14.45;3.22;;;;;;;6.22;90.13;101949.13;6154913;23;20014;-80
2023/05/16 04:32:52;;;;;;;13.38;3.25;;;;;;;6.31;89.23;101958.00;6080571;23;20067;-79
2023/05/16 04:35:18;;;;;;;13.82;3.05;;;;;;;6.35;89.49;101952.91;6104475;23;20012;-79
2023/05/16 04:37:43;;;;;;;15.20;3.63;;;;;;;6.51;89.50;101971.50;6104448;23;20013;-78
2023/05/16 04:40:10;;;;;;;14.50;3.33;;;;;;;6.56;89.04;101968.13;6102584;23;20092;-80
2023/05/16 04:42:37;;;;;;;12.02;3.20;;;;;;;6.66;87.80;101971.81;6080083;23;20013;-80
2023/05/16 04:45:05;;;;;;;13.68;3.20;;;;;;;6.81;87.79;101971.31;6080273;23;20355;-79
2023/05/16 04:47:31;;;;;;;14.82;3.88;;;;;;;6.90;87.87;101971.47;6104249;23;20017;-79
2023/05/16 04:49:57;;;;;;;16.08;2.95;;;;;;;7.07;88.05;101976.19;6078773;23;20024;-79
2023/05/16 04:52:23;;;;;;;18.90;3.30;;;;;;;7.17;87.20;101979.84;6102279;23;20340;-79
2023/05/16 04:54:51;;;;;;;16.30;3.45;;;;;;;7.21;86.58;101982.56;6077567;23;20015;-74
2023/05/16 04:57:17;;;;;;;11.93;2.85;;;;;;;7.38;86.31;101982.00;6103672;23;20009;-74
2023/05/16 04:59:43;;;;;;;14.32;3.47;;;;;;;7.41;86.53;101982.97;6077766;23;20016;-74
2023/05/16 05:02:08;;;;;;;14.25;2.97;;;;;;;7.60;86.16;101984.19;6077720;23;20025;-74
2023/05/16 05:04:34;;;;;;;14.90;3.65;;;;;;;7.71;85.93;101987.00;6103113;23;20373;-74
2023/05/16 05:07:00;;;;;;;13.13;2.90;;;;;;;8.00;85.50;101997.06;6128154;23;20012;-74
2023/05/16 05:09:26;;;;;;;16.67;3.15;;;;;;;8.10;84.29;101985.06;6102374;23;20025;-75
2023/05/16 05:11:51;;;;;;;13.38;2.85;;;;;;;8.27;83.02;101991.44;6104357;23;20084;-74
2023/05/16 05:14:16;;;;;;;13.77;2.80;;;;;;;8.38;83.94;101990.75;6102665;23;20351;-74
2023/05/16 05:16:42;;;;;;;12.13;2.40;;;;;;;8.57;83.36;101994.56;6080650;23;20021;-73
2023/05/16 05:19:10;;;;;;;13.98;3.45;;;;;;;8.74;81.79;101994.81;6079584;23;20085;-78
2023/05/16 05:21:36;;;;;;;10.27;2.40;;;;;;;8.86;80.48;101994.09;6081058;23;20084;-80
2023/05/16 05:24:03;;;;;;;11.23;2.58;;;;;;;9.01;80.18;101989.94;6104239;23;20436;-74
2023/05/16 05:26:28;;;;;;;15.05;2.80;;;;;;;9.13;78.91;101998.81;6102590;23;20005;-74
2023/05/16 05:28:54;;;;;;;17.17;3.15;;;;;;;9.35;78.80;101994.69;6127016;23;20020;-74
2023/05/16 05:31:19;;;;;;;10.85;2.30;;;;;;;9.47;77.96;101992.25;6079287;23;20013;-75
2023/05/16 05:33:45;;;;;;;13.13;2.85;;;;;;;9.59;77.85;101999.34;6080231;23;20017;-74
2023/05/16 05:36:11;;;;;;;18.10;3.20;;;;;;;9.74;76.00;102000.38;6127075;23;20009;-75
2023/05/16 05:38:37;;;;;;;12.48;2.85;;;;;;;10.00;75.97;102006.75;6079842;23;20471;-75
2023/05/16 05:41:03;;;;;;;13.95;2.90;;;;;;;10.19;75.36;102010.41;6102930;23;20009;-81
2023/05/16 05:43:28;;;;;;;8.77;2.25;;;;;;;10.29;74.69;102015.72;6080430;23;20446;-80
2023/05/16 05:45:54;;;;;;;19.05;3.22;;;;;;;10.38;73.76;102014.06;6078670;23;20047;-80
2023/05/16 05:48:19;;;;;;;16.38;2.75;;;;;;;10.80;72.89;102016.13;6079159;23;20446;-80
2023/05/16 05:50:45;;;;;;;12.95;2.55;;;;;;;10.87;72.74;102021.41;6078071;23;20083;-79
2023/05/16 05:53:10;;;;;;;15.95;2.67;;;;;;;10.93;71.35;102028.41;6104289;23;20016;-81
2023/05/16 05:55:36;;;;;;;19.90;3.15;;;;;;;11.15;71.30;102018.03;6103309;23;20017;-80
2023/05/16 05:58:01;;;;;;;15.98;3.00;;;;;;;11.27;70.16;102024.22;6080212;23;20009;-80
2023/05/16 06:00:28;;;;;;;14.50;2.35;;;;;;;11.32;68.92;102020.75;6079126;23;20316;-80
2023/05/16 06:02:53;;;;;;;12.15;2.90;;;;;;;11.46;70.38;102023.44;6104003;23;20088;-74
2023/05/16 06:05:19;;;;;;;11.40;2.35;;;;;;;11.54;68.42;102021.72;6128925;23;20423;-75
2023/05/16 06:07:44;;;;;;;11.38;2.22;;;;;;;11.69;68.39;102028.75;6126816;23;20085;-74
2023/05/16 06:10:10;;;;;;;14.95;2.75;;;;;;;11.78;66.30;102032.28;6102050;23;20005;-74
2023/05/16 06:12:35;;;;;;;10.23;2.10;;;;;;;11.98;67.42;102036.72;6104039;23;20016;-74
2023/05/16 06:15:01;;;;;;;7.18;2.00;;;;;;;12.19;66.43;102042.88;6103561;23;20061;-80
2023/05/16 06:17:26;;;;;;;13.82;2.20;;;;;;;12.31;65.36;102037.63;6103476;23;20337;-79
2023/05/16 06:19:52;;;;;;;10.32;2.33;;;;;;;12.09;64.55;102044.63;6127688;23;20493;-80
2023/05/16 06:22:17;;;;;;;9.15;2.20;;;;;;;11.87;64.81;102047.19;6127240;23;20016;-81
2023/05/16 06:24:43;;;;;;;12.02;2.58;;;;;;;11.60;66.05;102047.97;6102559;23;20020;-80
2023/05/16 06:27:08;;;;;;;12.15;2.17;;;;;;;11.40;64.32;102046.16;6103012;23;20009;-80
2023/05/16 06:29:34;;;;;;;11.23;2.53;;;;;;;11.31;66.50;102054.00;6079172;23;20082;-82
2023/05/16 06:31:59;;;;;;;9.45;1.88;;;;;;;11.33;66.86;102046.13;6079512;23;20101;-75
2023/05/16 06:34:27;;;;;;;11.65;2.22;;;;;;;11.35;67.93;102047.91;6126853;23;20104;-74
2023/05/16 06:36:53;;;;;;;13.85;2.58;;;;;;;11.64;67.88;102044.50;6079311;23;20024;-82
2023/05/16 06:39:19;;;;;;;13.07;2.63;;;;;;;12.05;67.50;102056.00;6128044;23;20127;-80
2023/05/16 06:41:45;;;;;;;7.20;1.77;;;;;;;12.42;66.34;102043.75;6127534;23;20029;-81
2023/05/16 06:44:10;;;;;;;10.35;2.58;;;;;;;12.56;65.87;102058.66;6079602;23;20020;-79
2023/05/16 06:46:37;;;;;;;11.35;2.35;;;;;;;13.07;66.14;102055.94;6079033;23;20352;-79
2023/05/16 06:49:03;;;;;;;11.05;2.20;;;;;;;13.13;63.25;102055.91;6154658;23;20036;-81
2023/05/16 06:51:29;;;;;;;11.77;2.33;;;;;;;13.34;64.40;102054.97;6102415;23;20377;-79
2023/05/16 06:53:55;;;;;;;11.02;2.53;;;;;;;13.34;61.26;102053.25;6104107;23;20037;-80
2023/05/16 06:56:21;;;;;;;10.63;1.90;;;;;;;13.32;60.58;102054.13;6102331;23;20009;-81
2023/05/16 06:58:48;;;;;;;7.60;2.20;;;;;;;13.27;60.83;102046.22;6154876;23;20009;-80
2023/05/16 07:01:13;;;;;;;7.45;2.05;;;;;;;13.47;61.81;102051.44;6126244;23;20436;-76
2023/05/16 07:03:39;;;;;;;12.07;2.03;;;;;;;13.63;61.23;102048.72;6081001;23;20012;-75
2023/05/16 07:06:04;;;;;;;7.90;2.10;;;;;;;13.54;60.05;102052.28;6103412;23;20006;-75
2023/05/16 07:08:30;;;;;;;5.63;1.40;;;;;;;13.30;59.58;102051.50;6098780;23;20064;-76
2023/05/16 07:10:55;;;;;;;9.95;1.67;;;;;;;13.23;59.75;102059.41;6072246;23;20010;-74
2023/05/16 07:13:21;;;;;;;12.60;2.25;;;;;;;13.34;60.98;102058.50;6077853;23;20148;-79
2023/05/16 07:15:49;;;;;;;16.30;2.20;;;;;;;13.52;60.06;102059.34;6103972;23;20013;-75
2023/05/16 07:18:15;;;;;;;5.72;1.52;;;;;;;13.71;59.79;102057.47;6127809;23;20010;-81
2023/05/16 07:20:40;;;;;;;9.40;1.90;;;;;;;13.83;63.04;102056.53;6079323;23;20066;-75
2023/05/16 07:23:06;;;;;;;10.38;1.90;;;;;;;13.98;59.94;102059.06;6129489;23;20009;-80
2023/05/16 07:25:49;;;;;;;6.53;1.48;;;;;;;14.01;58.93;102058.19;6077344;23;20009;-76
2023/05/16 07:28:15;;;;;;;5.68;1.27;;;;;;;14.02;58.04;102058.16;6084843;23;20063;-78
2023/05/16 07:30:40;;;;;;;8.23;1.40;;;;;;;14.14;56.17;102059.84;6102930;23;20021;-79
2023/05/16 07:33:06;;;;;;;7.80;1.50;;;;;;;13.99;55.23;102066.09;6127439;23;20009;-79
2023/05/16 07:35:34;;;;;;;5.25;1.17;;;;;;;13.98;56.40;102064.34;6081130;23;20052;-79
2023/05/16 07:38:02;;;;;;;11.80;1.58;;;;;;;13.75;55.39;102061.84;6127596;23;20060;-76
2023/05/16 07:40:28;;;;;;;7.57;1.30;;;;;;;13.47;54.64;102072.50;6127195;23;20071;-80
2023/05/16 07:42:53;;;;;;;11.30;1.67;;;;;;;13.40;57.74;102065.50;6104873;23;20047;-80
2023/05/16 07:45:19;;;;;;;8.10;1.42;;;;;;;13.44;59.07;102058.47;6104196;23;20010;-78
2023/05/16 07:47:47;;;;;;;10.27;1.88;;;;;;;13.62;57.28;102060.13;6080408;23;20092;-73
2023/05/16 07:50:13;;;;;;;7.97;1.60;;;;;;;13.38;56.50;102069.91;6104506;23;20507;-75
2023/05/16 07:52:38;;;;;;;6.97;1.50;;;;;;;13.39;56.16;102069.03;6103343;23;20093;-74
2023/05/16 07:55:04;;;;;;;8.43;1.70;;;;;;;13.30;56.05;102066.38;6080881;23;20010;-76
2023/05/16 07:57:29;;;;;;;8.23;1.50;;;;;;;13.30;57.33;102075.19;6105291;23;20005;-74
2023/05/16 07:59:56;;;;;;;6.55;1.58;;;;;;;13.29;57.65;102080.47;6081276;23;20013;-75
2023/05/16 08:02:29;;;;;;;8.25;1.30;;;;;;;13.33;57.44;102074.28;6081291;23;20013;-75
2023/05/16 08:04:56;;;;;;;6.53;1.10;;;;;;;13.08;56.42;102073.50;6104211;23;20009;-74
2023/05/16 08:07:23;;;;;;;9.98;2.17;;;;;;;13.02;56.99;102078.78;6079225;23;20017;-75
2023/05/16 08:09:51;;;;;;;7.35;1.52;;;;;;;13.13;58.37;102077.88;6126660;23;20327;-73
2023/05/16 08:12:17;;;;;;;9.38;1.83;;;;;;;13.19;57.14;102082.25;6128623;23;20005;-74
2023/05/16 08:14:44;;;;;;;10.50;1.58;;;;;;;13.35;57.22;102077.81;6080653;23;20023;-75
2023/05/16 08:17:12;;;;;;;6.90;1.60;;;;;;;13.39;58.01;102073.41;6105136;23;20010;-75
2023/05/16 08:19:38;;;;;;;10.77;1.75;;;;;;;13.52;57.98;102075.13;6082151;23;20013;-74
2023/05/16 08:22:06;;;;;;;6.28;1.20;;;;;;;13.33;55.91;102082.16;6104795;23;20040;-74
2023/05/16 08:24:32;;;;;;;7.47;1.63;;;;;;;13.11;56.31;102084.88;6128051;23;20036;-75
2023/05/16 08:26:57;;;;;;;6.22;1.38;;;;;;;13.18;56.20;102081.34;6104018;23;20012;-75
2023/05/16 08:29:23;;;;;;;6.70;1.55;;;;;;;13.25;58.22;102066.41;6079688;23;20020;-75
2023/05/16 08:31:48;;;;;;;8.13;1.35;;;;;;;13.14;54.55;102079.59;6102604;23;20021;-79
2023/05/16 08:34:14;;;;;;;7.00;1.55;;;;;;;13.21;56.53;102079.59;6100996;23;20013;-79
2023/05/16 08:36:40;;;;;;;8.75;1.52;;;;;;;13.35;56.42;102072.56;6101744;23;20014;-79
2023/05/16 08:39:06;;;;;;;7.72;1.13;;;;;;;13.58;56.85;102083.00;6078086;23;20055;-76
2023/05/16 08:41:32;;;;;;;7.43;1.60;;;;;;;13.50;55.06;102076.88;6128386;23;20423;-78
2023/05/16 08:43:58;;;;;;;5.68;1.15;;;;;;;13.20;54.71;102070.81;6155326;23;20001;-77
2023/05/16 08:46:27;;;;;;;7.07;1.30;;;;;;;13.00;56.80;102082.28;6129022;23;20013;-78
2023/05/16 08:48:58;;;;;;;8.95;1.33;;;;;;;12.77;58.03;102074.44;6152804;23;20013;-78
2023/05/16 08:51:24;;;;;;;7.32;1.60;;;;;;;12.57;58.05;102079.69;6127260;23;20228;-77
2023/05/16 08:53:56;;;;;;;10.52;1.67;;;;;;;12.67;60.12;102083.22;6129628;23;20059;-77
2023/05/16 08:56:23;;;;;;;8.65;1.35;;;;;;;12.86;60.69;102073.53;6127974;23;20002;-76
2023/05/16 08:58:53;;;;;;;10.52;1.58;;;;;;;13.03;58.41;102073.50;6129200;23;20415;-74
2023/05/16 09:01:20;;;;;;;7.82;1.52;;;;;;;13.15;59.51;102075.22;6105442;23;20096;-77
2023/05/16 09:03:47;;;;;;;7.88;1.55;;;;;;;13.24;57.58;102069.06;6104730;23;20056;-77
2023/05/16 09:06:12;;;;;;;8.25;1.48;;;;;;;13.27;56.62;102069.91;6104417;23;20010;-78
2023/05/16 09:08:38;;;;;;;4.75;1.15;;;;;;;13.44;54.87;102069.88;6081016;23;20013;-78
2023/05/16 09:11:03;;;;;;;7.70;1.20;;;;;;;13.43;55.83;102068.16;6103313;23;20005;-78
2023/05/16 09:13:29;;;;;;;7.15;0.90;;;;;;;13.52;54.16;102076.00;6081189;23;20013;-76
2023/05/16 09:16:27;;;;;;;3.42;0.90;;;;;;;13.72;56.03;102076.78;6080661;23;20013;-76
2023/05/16 09:18:55;;;;;;;7.70;1.27;;;;;;;13.78;56.07;102064.47;6026664;23;20096;-78
2023/05/16 09:21:22;;;;;;;9.05;1.50;;;;;;;13.91;55.94;102062.63;6128197;23;20084;-77
2023/05/16 09:23:49;;;;;;;8.10;1.40;;;;;;;13.73;54.22;102068.88;6104917;23;20020;-78
2023/05/16 09:26:15;;;;;;;5.20;1.00;;;;;;;13.68;52.36;102068.91;6127365;23;20001;-79
2023/05/16 09:28:40;;;;;;;6.35;1.90;;;;;;;13.43;54.74;102068.16;6103672;23;20036;-78
2023/05/16 09:31:36;;;;;;;5.75;1.40;;;;;;;13.47;54.00;102075.13;6102586;23;20440;-81
2023/05/16 09:34:06;;;;;;;7.22;1.20;;;;;;;13.67;57.00;102071.53;6101401;23;20101;-78
2023/05/16 09:36:32;;;;;;;5.60;1.40;;;;;;;13.83;54.85;102060.06;6128037;23;20020;-77
2023/05/16 09:38:58;;;;;;;6.07;1.20;;;;;;;13.90;54.66;102060.88;6104164;23;20013;-78
2023/05/16 09:41:23;;;;;;;3.90;1.00;;;;;;;13.95;53.83;102061.72;6127801;23;20005;-76
2023/05/16 09:43:48;;;;;;;5.97;1.02;;;;;;;14.02;55.05;102070.44;6104387;23;20005;-75
2023/05/16 09:46:14;;;;;;;9.25;1.30;;;;;;;14.08;53.65;102053.72;6103544;23;20033;-74
2023/05/16 09:48:47;;;;;;;8.90;1.50;;;;;;;14.04;55.26;102068.69;6080196;23;20009;-76
2023/05/16 09:51:13;;;;;;;7.35;1.40;;;;;;;14.14;56.57;102069.53;6100183;23;20020;-75
2023/05/16 09:53:40;;;;;;;14.02;1.48;;;;;;;13.99;55.69;102078.38;6126756;23;20013;-76
2023/05/16 09:56:15;;;;;;;9.98;1.52;;;;;;;13.78;54.85;102077.63;6102328;23;20005;-75
2023/05/16 09:58:43;;;;;;;9.05;1.30;;;;;;;13.43;54.15;102081.31;6127271;23;20009;-75
2023/05/16 10:01:12;;;;;;;8.43;1.63;;;;;;;13.17;54.07;102087.50;6125897;23;20080;-76
2023/05/16 10:03:42;;;;;;;6.20;1.80;;;;;;;13.30;57.08;102074.28;6102563;23;20436;-76
2023/05/16 10:06:08;;;;;;;6.00;1.23;;;;;;;13.38;56.44;102076.94;6127211;23;20032;-77
2023/05/16 10:08:35;;;;;;;6.43;1.27;;;;;;;13.49;57.69;102076.03;6126379;23;20009;-78
2023/05/16 10:11:02;;;;;;;5.65;1.10;;;;;;;13.45;55.36;102073.41;6101155;23;20013;-76
2023/05/16 10:13:30;;;;;;;6.10;1.30;;;;;;;13.34;53.16;102071.66;6102949;23;20016;-77
2023/05/16 10:16:00;;;;;;;5.00;1.50;;;;;;;13.44;54.28;102069.88;6127891;23;20068;-75
2023/05/16 10:18:31;;;;;;;7.65;1.50;;;;;;;13.56;55.04;102063.72;6128346;23;20499;-76
2023/05/16 10:21:03;;;;;;;8.55;1.38;;;;;;;13.68;55.30;102065.41;6102806;23;20013;-75
2023/05/16 10:23:30;;;;;;;6.57;1.33;;;;;;;13.86;53.84;102057.41;6126870;23;20005;-74
2023/05/16 10:25:57;;;;;;;7.53;1.40;;;;;;;13.90;53.95;102065.28;6102508;23;20005;-78
2023/05/16 10:28:23;;;;;;;12.30;1.48;;;;;;;13.97;55.09;102064.34;6125611;23;20016;-75
2023/05/16 10:30:50;;;;;;;4.22;1.30;;;;;;;13.94;52.74;102067.00;6127904;23;20037;-75
2023/05/16 10:33:17;;;;;;;6.97;1.30;;;;;;;14.08;54.38;102064.25;6103438;23;20013;-75
2023/05/16 10:35:44;;;;;;;9.02;1.48;;;;;;;14.18;51.52;102066.84;6102607;23;20013;-74
2023/05/16 10:38:11;;;;;;;6.43;1.45;;;;;;;14.28;50.69;102056.22;6103714;23;20081;-74
2023/05/16 10:40:40;;;;;;;4.93;0.90;;;;;;;14.31;50.12;102058.81;6126549;23;20029;-75
2023/05/16 10:43:07;;;;;;;6.95;1.20;;;;;;;14.41;51.84;102057.88;6102026;23;20017;-77
2023/05/16 10:45:33;;;;;;;4.93;1.10;;;;;;;14.51;48.73;102051.63;6078565;23;20020;-74
2023/05/16 10:48:04;;;;;;;9.02;1.10;;;;;;;14.62;51.00;102061.25;6104208;23;20010;-75
2023/05/16 10:50:33;;;;;;;8.73;1.20;;;;;;;14.26;49.83;102066.78;6127804;23;20012;-76
2023/05/16 10:53:17;;;;;;;7.85;1.45;;;;;;;13.93;49.85;102067.88;6127080;23;20167;-74
2023/05/16 10:55:49;;;;;;;5.45;1.27;;;;;;;13.73;50.81;102066.22;6126031;23;20183;-75
2023/05/16 10:58:22;;;;;;;5.35;1.00;;;;;;;13.70;51.12;102076.78;6126192;23;20013;-76
2023/05/16 11:00:48;;;;;;;8.55;1.15;;;;;;;13.52;50.85;102060.19;6127615;23;20141;-77
2023/05/16 11:03:27;;;;;;;6.43;1.20;;;;;;;13.61;51.55;102068.94;6103100;23;20104;-76
2023/05/16 11:05:55;;;;;;;7.20;1.33;;;;;;;13.66;51.78;102062.78;6127527;23;20013;-76
2023/05/16 11:08:21;;;;;;;5.43;1.40;;;;;;;13.89;51.58;102056.47;6104283;23;20010;-77
2023/05/16 11:10:46;;;;;;;6.75;1.38;;;;;;;13.90;51.00;102060.00;6101792;23;20345;-76
2023/05/16 11:13:11;;;;;;;5.13;1.20;;;;;;;13.98;50.78;102069.63;6079194;23;20009;-75
2023/05/16 11:15:37;;;;;;;5.13;1.15;;;;;;;14.01;50.43;102060.81;6079018;23;20429;-77
2023/05/16 11:18:07;;;;;;;6.70;1.00;;;;;;;14.20;50.81;102056.28;6079282;23;20021;-76
2023/05/16 11:20:37;;;;;;;5.65;0.82;;;;;;;14.13;47.24;102057.22;6126495;23;20036;-75
2023/05/16 11:23:17;;;;;;;7.15;1.10;;;;;;;14.27;51.45;102062.41;6102730;23;20152;-76
2023/05/16 11:25:49;;;;;;;7.28;1.20;;;;;;;14.24;50.10;102070.31;6126417;23;20009;-75
2023/05/16 11:28:18;;;;;;;4.03;1.20;;;;;;;14.24;49.95;102059.75;6127553;23;20005;-77
2023/05/16 11:30:48;;;;;;;4.93;1.05;;;;;;;14.18;49.82;102064.22;6126778;23;20017;-76
2023/05/16 11:33:15;;;;;;;5.93;1.35;;;;;;;14.01;48.86;102074.00;6103311;23;20037;-75
2023/05/16 11:35:41;;;;;;;5.68;1.13;;;;;;;13.86;49.89;102065.31;6102403;23;20096;-77
2023/05/16 11:38:16;;;;;;;9.30;1.33;;;;;;;14.06;52.76;102072.19;6151292;23;20037;-75
2023/05/16 11:40:45;;;;;;;6.13;1.05;;;;;;;14.18;52.18;102068.63;6126405;23;20057;-74
2023/05/16 11:43:11;;;;;;;7.72;1.45;;;;;;;14.30;53.59;102080.81;6104156;23;20009;-77
2023/05/16 11:45:36;;;;;;;8.40;1.40;;;;;;;14.52;50.74;102076.25;6101620;23;20084;-77
2023/05/16 11:48:03;;;;;;;5.25;1.00;;;;;;;14.52;51.80;102066.59;6103129;23;20016;-76
2023/05/16 11:50:29;;;;;;;5.68;1.35;;;;;;;14.60;51.40;102069.16;6128905;23;20017;-75
2023/05/16 11:52:56;;;;;;;10.77;1.63;;;;;;;14.91;52.60;102068.88;6104033;23;20037;-75
2023/05/16 11:55:24;;;;;;;10.20;1.67;;;;;;;14.95;52.06;102073.22;6128525;23;20014;-77
2023/05/16 11:57:53;;;;;;;10.35;1.42;;;;;;;15.01;48.58;102074.94;6129431;23;20012;-77
2023/05/16 12:00:21;;;;;;;5.93;0.90;;;;;;;15.22;50.07;102064.13;6128635;23;20031;-75
2023/05/16 12:02:49;;;;;;;4.38;1.17;;;;;;;15.33;48.08;102071.94;6155485;23;20005;-76
2023/05/16 12:05:16;;;;;;;10.55;1.48;;;;;;;15.42;47.56;102076.22;6104649;23;20016;-75
2023/05/16 12:07:43;;;;;;;7.32;1.25;;;;;;;15.53;47.46;102079.63;6081604;23;20014;-76
2023/05/16 12:10:10;;;;;;;5.13;1.27;;;;;;;15.47;45.25;102078.81;6128651;23;20002;-75
2023/05/16 12:12:38;;;;;;;4.40;1.27;;;;;;;15.14;45.13;102092.41;6105126;23;20018;-75
2023/05/16 12:15:07;;;;;;;4.80;1.27;;;;;;;15.01;46.43;102088.13;6129521;23;20005;-75
2023/05/16 12:17:34;;;;;;;6.57;1.30;;;;;;;14.85;48.38;102090.91;6127618;23;20009;-75